createdAt,value
2022-09-23T00:00:43.945Z,101869.81
2022-09-23T00:03:11.011Z,101870.19
2022-09-23T00:05:38.338Z,101866.03
2022-09-23T00:08:06.460Z,101869.03
2022-09-23T00:10:33.005Z,101870.94
2022-09-23T00:12:59.834Z,101863.38
2022-09-23T00:15:26.886Z,101863.00
2022-09-23T00:17:53.408Z,101866.06
2022-09-23T00:20:20.204Z,101853.19
2022-09-23T00:22:46.643Z,101858.53
2022-09-23T00:25:13.132Z,101854.75
2022-09-23T00:27:41.899Z,101854.75
2022-09-23T00:30:10.121Z,101853.69
2022-09-23T00:32:37.763Z,101852.19
2022-09-23T00:35:04.530Z,101843.88
2022-09-23T00:37:31.549Z,101854.94
2022-09-23T00:40:00.713Z,101850.06
2022-09-23T00:42:27.123Z,101840.59
2022-09-23T00:44:59.302Z,101837.53
2022-09-23T00:47:41.036Z,101839.41
2022-09-23T00:50:26.404Z,101835.28
2022-09-23T00:52:56.664Z,101829.25
2022-09-23T00:55:28.146Z,101830.00
2022-09-23T00:57:56.864Z,101830.78
2022-09-23T01:00:23.703Z,101833.41
2022-09-23T01:02:51.104Z,101825.88
2022-09-23T01:05:18.458Z,101827.78
2022-09-23T01:07:45.915Z,101826.28
2022-09-23T01:10:14.550Z,101822.91
2022-09-23T01:13:07.711Z,101824.88
2022-09-23T01:16:06.619Z,101824.16
2022-09-23T01:18:53.797Z,101822.66
2022-09-23T01:21:41.955Z,101824.59
2022-09-23T01:24:32.941Z,101820.81
2022-09-23T01:27:12.964Z,101819.75
2022-09-23T01:30:01.345Z,101825.78
2022-09-23T01:32:39.040Z,101817.47
2022-09-23T01:35:09.661Z,101819.03
2022-09-23T01:38:00.912Z,101809.16
2022-09-23T01:40:51.757Z,101808.03
2022-09-23T01:43:25.944Z,101806.91
2022-09-23T01:45:59.427Z,101805.41
2022-09-23T01:48:44.975Z,101806.22
2022-09-23T01:51:42.223Z,101806.25
2022-09-23T01:54:31.549Z,101801.00
2022-09-23T01:57:03.621Z,101807.81
2022-09-23T01:59:40.624Z,101807.81
2022-09-23T02:02:15.845Z,101802.09
2022-09-23T02:04:54.088Z,101796.44
2022-09-23T02:07:45.108Z,101794.97
2022-09-23T02:10:36.225Z,101792.41
2022-09-23T02:13:09.135Z,101789.00
2022-09-23T02:15:44.661Z,101789.69
2022-09-23T02:18:20.129Z,101789.75
2022-09-23T02:20:49.009Z,101782.94
2022-09-23T02:23:20.977Z,101784.44
2022-09-23T02:25:53.060Z,101782.94
2022-09-23T02:28:34.513Z,101773.81
2022-09-23T02:31:21.323Z,101766.28
2022-09-23T02:33:56.954Z,101759.09
2022-09-23T02:36:31.421Z,101757.59
2022-09-23T02:39:03.439Z,101765.19
2022-09-23T02:41:44.572Z,101751.97
2022-09-23T02:44:16.891Z,101755.03
2022-09-23T02:46:44.264Z,101751.28
2022-09-23T02:49:17.487Z,101750.16
2022-09-23T02:51:44.673Z,101749.03
2022-09-23T02:54:15.627Z,101739.19
2022-09-23T02:56:42.585Z,101731.66
2022-09-23T02:59:10.074Z,101742.63
2022-09-23T03:01:56.758Z,101735.84
2022-09-23T03:04:42.437Z,101740.41
2022-09-23T03:07:35.807Z,101743.09
2022-09-23T03:10:07.557Z,101731.41
2022-09-23T03:13:07.664Z,101731.44
2022-09-23T03:15:43.139Z,101731.44
2022-09-23T03:18:17.349Z,101731.44
2022-09-23T03:20:52.526Z,101720.88
2022-09-23T03:23:25.127Z,101720.09
2022-09-23T03:25:55.498Z,101723.91
2022-09-23T03:28:25.299Z,101727.31
2022-09-23T03:30:54.351Z,101733.75
2022-09-23T03:33:28.528Z,101728.09
2022-09-23T03:36:27.934Z,101721.28
2022-09-23T03:39:05.409Z,101717.50
2022-09-23T03:41:37.874Z,101729.59
2022-09-23T03:44:07.051Z,101716.38
2022-09-23T03:46:35.317Z,101718.28
2022-09-23T03:49:16.363Z,101709.19
2022-09-23T03:51:44.657Z,101708.84
2022-09-23T03:54:11.342Z,101712.25
2022-09-23T03:56:37.770Z,101709.56
2022-09-23T03:59:04.170Z,101706.53
2022-09-23T04:01:30.639Z,101701.59
2022-09-23T04:03:57.052Z,101700.09
2022-09-23T04:06:23.473Z,101699.72
2022-09-23T04:08:50.068Z,101700.09
2022-09-23T04:11:16.460Z,101698.19
2022-09-23T04:13:42.907Z,101695.56
2022-09-23T04:16:09.395Z,101691.81
2022-09-23T04:18:35.862Z,101699.34
2022-09-23T04:21:02.420Z,101693.31
2022-09-23T04:23:28.834Z,101708.06
2022-09-23T04:25:55.579Z,101698.25
2022-09-23T04:28:22.469Z,101699.03
2022-09-23T04:30:50.061Z,101698.63
2022-09-23T04:33:17.323Z,101698.63
2022-09-23T04:35:43.792Z,101691.03
2022-09-23T04:38:13.153Z,101694.81
2022-09-23T04:40:40.348Z,101684.63
2022-09-23T04:43:10.553Z,101689.13
2022-09-23T04:45:39.346Z,101686.06
2022-09-23T04:48:05.782Z,101685.69
2022-09-23T04:50:33.777Z,101685.66
2022-09-23T04:53:00.217Z,101692.47
2022-09-23T04:55:26.676Z,101689.06
2022-09-23T04:57:55.469Z,101683.72
2022-09-23T05:00:23.148Z,101687.13
2022-09-23T05:02:50.620Z,101693.13
2022-09-23T05:05:21.073Z,101687.06
2022-09-23T05:07:48.407Z,101684.03
2022-09-23T05:10:15.507Z,101677.19
2022-09-23T05:12:42.140Z,101674.13
2022-09-23T05:15:08.825Z,101679.78
2022-09-23T05:17:37.190Z,101679.41
2022-09-23T05:20:04.815Z,101674.06
2022-09-23T05:22:31.836Z,101675.59
2022-09-23T05:25:00.188Z,101676.34
2022-09-23T05:27:26.682Z,101685.38
2022-09-23T05:29:53.151Z,101678.94
2022-09-23T05:32:20.001Z,101680.09
2022-09-23T05:34:46.698Z,101680.84
2022-09-23T05:37:13.203Z,101686.53
2022-09-23T05:39:39.646Z,101680.84
2022-09-23T05:42:06.757Z,101686.50
2022-09-23T05:44:33.209Z,101688.38
2022-09-23T05:46:59.693Z,101686.09
2022-09-23T05:49:42.493Z,101690.56
2022-09-23T05:52:12.532Z,101682.19
2022-09-23T05:54:39.192Z,101691.22
2022-09-23T05:57:06.032Z,101688.16
2022-09-23T05:59:32.823Z,101686.97
2022-09-23T06:01:59.851Z,101695.25
2022-09-23T06:04:26.359Z,101694.47
2022-09-23T06:06:53.074Z,101698.97
2022-09-23T06:09:19.501Z,101689.88
2022-09-23T06:11:46.697Z,101693.25
2022-09-23T06:14:14.578Z,101697.72
2022-09-23T06:16:41.029Z,101692.38
2022-09-23T06:19:07.463Z,101694.59
2022-09-23T06:21:37.243Z,101691.16
2022-09-23T06:24:04.162Z,101691.88
2022-09-23T06:26:33.515Z,101686.91
2022-09-23T06:29:01.636Z,101680.41
2022-09-23T06:31:28.905Z,101686.78
2022-09-23T06:34:08.664Z,101684.00
2022-09-23T06:36:43.955Z,101682.41
2022-09-23T06:39:12.451Z,101680.06
2022-09-23T06:41:39.220Z,101678.47
2022-09-23T06:44:11.384Z,101685.56
2022-09-23T06:46:37.922Z,101678.63
2022-09-23T06:49:04.590Z,101684.56
2022-09-23T06:51:31.473Z,101675.69
2022-09-23T06:53:57.912Z,101684.25
2022-09-23T06:56:24.687Z,101686.00
2022-09-23T06:58:52.476Z,101688.06
2022-09-23T07:01:19.637Z,101681.44
2022-09-23T07:03:48.117Z,101682.00
2022-09-23T07:06:14.697Z,101693.91
2022-09-23T07:08:44.076Z,101682.72
2022-09-23T07:11:13.104Z,101680.19
2022-09-23T07:13:41.247Z,101682.91
2022-09-23T07:16:09.289Z,101681.88
2022-09-23T07:18:37.367Z,101681.25
2022-09-23T07:21:14.899Z,101686.69
2022-09-23T07:23:46.203Z,101686.13
2022-09-23T07:26:16.643Z,101682.84
2022-09-23T07:28:43.384Z,101682.56
2022-09-23T07:31:20.602Z,101666.66
2022-09-23T07:33:57.656Z,101675.91
2022-09-23T07:36:24.961Z,101674.91
2022-09-23T07:38:51.440Z,101679.94
2022-09-23T07:41:19.103Z,101687.34
2022-09-23T07:43:46.366Z,101691.66
2022-09-23T07:46:16.749Z,101693.00
2022-09-23T07:48:44.984Z,101693.88
2022-09-23T07:51:19.074Z,101694.66
2022-09-23T07:53:49.952Z,101689.06
2022-09-23T07:56:18.922Z,101699.34
2022-09-23T07:58:59.942Z,101692.00
2022-09-23T08:01:31.226Z,101694.66
2022-09-23T08:03:59.686Z,101693.13
2022-09-23T08:06:26.436Z,101692.41
2022-09-23T08:08:53.613Z,101704.50
2022-09-23T08:11:20.389Z,101691.44
2022-09-23T08:13:47.532Z,101692.59
2022-09-23T08:16:14.181Z,101688.22
2022-09-23T08:18:43.917Z,101688.63
2022-09-23T08:21:10.315Z,101690.94
2022-09-23T08:23:37.035Z,101696.31
2022-09-23T08:26:10.031Z,101699.47
2022-09-23T08:28:41.017Z,101696.63
2022-09-23T08:31:08.289Z,101702.34
2022-09-23T08:33:34.765Z,101694.34
2022-09-23T08:36:02.600Z,101681.03
2022-09-23T08:38:29.782Z,101692.09
2022-09-23T08:41:07.570Z,101690.38
2022-09-23T08:43:35.934Z,101688.78
2022-09-23T08:46:05.150Z,101688.88
2022-09-23T08:48:42.280Z,101688.47
2022-09-23T08:51:15.856Z,101689.09
2022-09-23T08:53:43.757Z,101696.41
2022-09-23T08:56:19.186Z,101693.88
2022-09-23T08:59:07.484Z,101694.31
2022-09-23T09:01:45.593Z,101692.84
2022-09-23T09:04:32.898Z,101686.72
2022-09-23T09:07:35.270Z,101682.41
2022-09-23T09:10:23.252Z,101687.06
2022-09-23T09:13:07.316Z,101681.38
2022-09-23T09:15:42.796Z,101681.69
2022-09-23T09:18:19.818Z,101684.06
2022-09-23T09:20:57.314Z,101675.44
2022-09-23T09:23:31.544Z,101677.66
2022-09-23T09:26:01.521Z,101687.66
2022-09-23T09:28:48.709Z,101679.75
2022-09-23T09:31:24.566Z,101680.34
2022-09-23T09:33:57.911Z,101676.47
2022-09-23T09:36:42.522Z,101676.47
2022-09-23T09:39:14.356Z,101673.81
2022-09-23T09:41:46.683Z,101672.47
2022-09-23T09:44:24.759Z,101669.75
2022-09-23T09:47:02.671Z,101668.41
2022-09-23T09:49:48.839Z,101673.59
2022-09-23T09:52:26.839Z,101678.66
2022-09-23T09:54:53.695Z,101668.97
2022-09-23T09:57:33.678Z,101667.44
2022-09-23T10:00:26.449Z,101672.28
2022-09-23T10:03:24.647Z,101661.84
2022-09-23T10:05:54.374Z,101667.81
2022-09-23T10:08:34.953Z,101664.97
2022-09-23T10:11:08.044Z,101662.28
2022-09-23T10:13:37.959Z,101658.66
2022-09-23T10:16:05.262Z,101651.19
2022-09-23T10:18:37.417Z,101656.03
2022-09-23T10:21:06.978Z,101655.34
2022-09-23T10:23:34.076Z,101654.47
2022-09-23T10:26:03.022Z,101646.16
2022-09-23T10:28:41.171Z,101641.44
2022-09-23T10:31:26.279Z,101648.13
2022-09-23T10:34:26.544Z,101642.19
2022-09-23T10:37:07.520Z,101636.81
2022-09-23T10:39:52.591Z,101637.38
2022-09-23T10:42:52.662Z,101640.34
2022-09-23T10:45:45.696Z,101633.66
2022-09-23T10:48:28.661Z,101637.38
2022-09-23T10:50:59.448Z,101639.88
2022-09-23T10:53:57.555Z,101637.47
2022-09-23T10:56:40.749Z,101648.06
2022-09-23T10:59:18.640Z,101644.34
2022-09-23T11:01:59.094Z,101639.31
2022-09-23T11:04:54.757Z,101649.16
2022-09-23T11:07:39.290Z,101646.56
2022-09-23T11:10:23.340Z,101637.94
2022-09-23T11:13:15.029Z,101643.41
2022-09-23T11:15:53.641Z,101641.91
2022-09-23T11:18:32.026Z,101637.66
2022-09-23T11:21:20.143Z,101634.84
2022-09-23T11:23:59.618Z,101638.72
2022-09-23T11:26:53.034Z,101635.75
2022-09-23T11:29:34.282Z,101639.75
2022-09-23T11:32:39.628Z,101639.88
2022-09-23T11:35:22.820Z,101636.31
2022-09-23T11:37:58.571Z,101630.78
2022-09-23T11:40:34.427Z,101630.28
2022-09-23T11:43:15.548Z,101631.66
2022-09-23T11:45:57.871Z,101620.97
2022-09-23T11:48:37.931Z,101630.78
2022-09-23T11:51:21.366Z,101620.53
2022-09-23T11:53:55.129Z,101608.63
2022-09-23T11:56:34.913Z,101614.22
2022-09-23T11:59:34.791Z,101610.38
2022-09-23T12:02:19.215Z,101610.06
2022-09-23T12:05:03.712Z,101610.59
2022-09-23T12:07:56.511Z,101600.88
2022-09-23T12:10:36.013Z,101597.50
2022-09-23T12:13:34.211Z,101594.75
2022-09-23T12:16:18.896Z,101603.25
2022-09-23T12:19:23.108Z,101600.53
2022-09-23T12:22:06.361Z,101588.91
2022-09-23T12:24:55.919Z,101592.97
2022-09-23T12:27:31.854Z,101580.25
2022-09-23T12:30:04.748Z,101585.47
2022-09-23T12:32:32.521Z,101586.47
2022-09-23T12:35:00.471Z,101577.53
2022-09-23T12:37:35.548Z,101577.97
2022-09-23T12:40:16.906Z,101576.75
2022-09-23T12:42:46.265Z,101577.00
2022-09-23T12:45:28.157Z,101574.84
2022-09-23T12:47:54.758Z,101572.97
2022-09-23T12:50:53.964Z,101579.44
2022-09-23T12:53:35.676Z,101573.78
2022-09-23T12:56:18.161Z,101569.13
2022-09-23T12:58:44.674Z,101573.44
2022-09-23T13:01:17.059Z,101565.44
2022-09-23T13:04:08.459Z,101570.13
2022-09-23T13:06:41.083Z,101570.75
2022-09-23T13:09:16.748Z,101563.94
2022-09-23T13:11:47.868Z,101565.00
2022-09-23T13:14:27.270Z,101561.13
2022-09-23T13:16:58.197Z,101558.97
2022-09-23T13:19:34.279Z,101566.56
2022-09-23T13:22:09.454Z,101553.88
2022-09-23T13:24:47.461Z,101555.56
2022-09-23T13:27:33.970Z,101553.41
2022-09-23T13:30:19.305Z,101551.34
2022-09-23T13:32:53.595Z,101558.16
2022-09-23T13:35:27.109Z,101549.56
2022-09-23T13:37:53.589Z,101549.31
2022-09-23T13:40:26.987Z,101547.81
2022-09-23T13:43:01.235Z,101538.94
2022-09-23T13:45:28.945Z,101543.16
2022-09-23T13:48:01.314Z,101536.34
2022-09-23T13:50:34.712Z,101536.41
2022-09-23T13:53:06.353Z,101534.31
2022-09-23T13:55:38.890Z,101537.78
2022-09-23T13:58:28.305Z,101538.00
2022-09-23T14:00:56.717Z,101537.03
2022-09-23T14:03:26.106Z,101537.78
2022-09-23T14:05:55.488Z,101537.03
2022-09-23T14:08:22.689Z,101527.50
2022-09-23T14:10:49.608Z,101524.88
2022-09-23T14:13:41.557Z,101519.75
2022-09-23T14:16:10.949Z,101518.19
2022-09-23T14:18:51.737Z,101514.19
2022-09-23T14:21:39.716Z,101509.09
2022-09-23T14:24:44.519Z,101510.38
2022-09-23T14:27:15.803Z,101505.00
2022-09-23T14:29:47.761Z,101502.22
2022-09-23T14:32:17.768Z,101506.09
2022-09-23T14:35:00.792Z,101503.88
2022-09-23T14:37:55.079Z,101505.78
2022-09-23T14:40:26.470Z,101495.69
2022-09-23T14:43:26.894Z,101499.44
2022-09-23T14:45:56.755Z,101493.78
2022-09-23T14:48:31.547Z,101491.03
2022-09-23T14:51:00.039Z,101496.88
2022-09-23T14:53:40.907Z,101495.63
2022-09-23T14:56:07.313Z,101497.31
2022-09-23T14:58:52.342Z,101489.38
2022-09-23T15:01:32.049Z,101486.03
2022-09-23T15:04:08.874Z,101479.53
2022-09-23T15:06:37.918Z,101483.25
2022-09-23T15:09:05.706Z,101483.47
2022-09-23T15:11:35.066Z,101483.66
2022-09-23T15:14:35.990Z,101486.25
2022-09-23T15:16:51.122Z,101482.31
2022-09-23T15:19:20.910Z,101481.78
2022-09-23T15:21:52.108Z,101470.47
2022-09-23T15:24:33.835Z,101479.25
2022-09-23T15:27:00.153Z,101468.72
2022-09-23T15:29:26.938Z,101477.50
2022-09-23T15:31:53.488Z,101474.06
2022-09-23T15:34:20.813Z,101468.13
2022-09-23T15:36:48.251Z,101475.63
2022-09-23T15:39:14.963Z,101474.16
2022-09-23T15:41:43.140Z,101469.63
2022-09-23T15:44:14.393Z,101473.53
2022-09-23T15:46:46.653Z,101473.53
2022-09-23T15:49:27.349Z,101468.16
2022-09-23T15:51:55.789Z,101466.69
2022-09-23T15:54:22.233Z,101465.94
2022-09-23T15:56:48.641Z,101464.47
2022-09-23T15:59:15.029Z,101468.34
2022-09-23T16:01:43.158Z,101464.47
2022-09-23T16:04:12.912Z,101459.25
2022-09-23T16:06:39.601Z,101459.44
2022-09-23T16:09:06.072Z,101459.91
2022-09-23T16:11:32.714Z,101459.38
2022-09-23T16:14:00.579Z,101462.25
2022-09-23T16:16:30.069Z,101464.47
2022-09-23T16:18:56.745Z,101463.28
2022-09-23T16:21:28.461Z,101465.69
2022-09-23T16:23:57.131Z,101464.94
2022-09-23T16:26:27.211Z,101466.28
2022-09-23T16:28:55.800Z,101465.38
2022-09-23T16:31:25.368Z,101460.94
2022-09-23T16:33:53.349Z,101475.06
2022-09-23T16:36:28.792Z,101470.03
2022-09-23T16:38:55.778Z,101469.03
2022-09-23T16:41:23.422Z,101471.63
2022-09-23T16:43:50.904Z,101465.50
2022-09-23T16:46:19.448Z,101470.06
2022-09-23T16:48:52.249Z,101473.59
2022-09-23T16:51:26.413Z,101473.41
2022-09-23T16:53:54.456Z,101470.78
2022-09-23T16:56:27.973Z,101464.84
2022-09-23T16:58:55.523Z,101471.50
2022-09-23T17:02:03.588Z,101472.38
2022-09-23T17:04:30.487Z,101470.78
2022-09-23T17:06:57.594Z,101476.16
2022-09-23T17:09:26.738Z,101471.59
2022-09-23T17:12:04.322Z,101475.09
2022-09-23T17:14:31.472Z,101474.97
2022-09-23T17:16:58.842Z,101468.94
2022-09-23T17:19:25.371Z,101467.63
2022-09-23T17:21:53.033Z,101470.16
2022-09-23T17:24:19.433Z,101469.88
2022-09-23T17:26:49.364Z,101468.56
2022-09-23T17:29:19.140Z,101468.59
2022-09-23T17:31:46.591Z,101472.31
2022-09-23T17:34:13.228Z,101470.72
2022-09-23T17:36:40.319Z,101471.91
2022-09-23T17:39:06.982Z,101466.56
2022-09-23T17:41:33.525Z,101462.84
2022-09-23T17:44:00.478Z,101459.59
2022-09-23T17:46:28.871Z,101453.81
2022-09-23T17:48:56.226Z,101450.38
2022-09-23T17:51:24.125Z,101448.63
2022-09-23T17:53:51.054Z,101442.53
2022-09-23T17:56:24.802Z,101452.25
2022-09-23T17:58:53.270Z,101449.44
2022-09-23T18:01:22.349Z,101450.34
2022-09-23T18:03:54.421Z,101446.34
2022-09-23T18:06:23.128Z,101446.97
2022-09-23T18:08:51.038Z,101449.81
2022-09-23T18:11:38.710Z,101451.59
2022-09-23T18:14:16.595Z,101445.63
2022-09-23T18:16:45.573Z,101447.94
2022-09-23T18:19:14.679Z,101446.91
2022-09-23T18:21:44.445Z,101444.97
2022-09-23T18:26:59.653Z,101449.75
2022-09-23T18:29:26.340Z,101453.03
2022-09-23T18:31:53.009Z,101449.31
2022-09-23T18:34:20.105Z,101450.06
2022-09-23T18:36:46.753Z,101450.50
2022-09-23T18:39:13.200Z,101449.19
2022-09-23T18:41:40.578Z,101449.63
2022-09-23T18:44:07.086Z,101450.53
2022-09-23T18:46:33.750Z,101449.06
2022-09-23T18:49:18.838Z,101446.81
2022-09-23T18:51:54.507Z,101445.50
2022-09-23T18:54:22.350Z,101445.53
2022-09-23T18:56:49.854Z,101451.06
2022-09-23T18:59:19.423Z,101457.59
2022-09-23T19:01:47.620Z,101454.94
2022-09-23T19:04:16.684Z,101460.00
2022-09-23T19:06:43.170Z,101453.59
2022-09-23T19:09:10.426Z,101457.91
2022-09-23T19:11:37.040Z,101458.53
2022-09-23T19:14:06.519Z,101452.88
2022-09-23T19:16:34.805Z,101454.06
2022-09-23T19:19:02.569Z,101452.28
2022-09-23T19:21:30.323Z,101453.91
2022-09-23T19:24:03.298Z,101447.97
2022-09-23T19:26:37.386Z,101444.84
2022-09-23T19:29:05.674Z,101445.59
2022-09-23T19:31:35.308Z,101452.13
2022-09-23T19:34:09.879Z,101451.53
2022-09-23T19:36:39.348Z,101447.03
2022-09-23T19:39:17.414Z,101451.22
2022-09-23T19:41:44.633Z,101447.03
2022-09-23T19:44:11.712Z,101450.94
2022-09-23T19:46:40.772Z,101442.91
2022-09-23T19:49:07.713Z,101441.41
2022-09-23T19:51:34.704Z,101443.81
2022-09-23T19:54:02.129Z,101438.16
2022-09-23T19:56:29.559Z,101442.75
2022-09-23T19:58:57.546Z,101439.03
2022-09-23T20:01:26.475Z,101442.91
2022-09-23T20:03:53.349Z,101438.00
2022-09-23T20:06:20.423Z,101439.94
2022-09-23T20:08:47.858Z,101430.72
2022-09-23T20:11:17.400Z,101436.81
2022-09-23T20:13:47.111Z,101437.56
2022-09-23T20:16:18.715Z,101427.00
2022-09-23T20:18:46.537Z,101430.13
2022-09-23T20:21:15.114Z,101427.44
2022-09-23T20:23:41.960Z,101430.56
2022-09-23T20:26:27.946Z,101423.72
2022-09-23T20:28:55.089Z,101425.81
2022-09-23T20:31:22.919Z,101428.94
2022-09-23T20:33:51.293Z,101424.75
2022-09-23T20:36:17.687Z,101417.47
2022-09-23T20:38:44.085Z,101421.34
2022-09-23T20:41:10.550Z,101415.25
2022-09-23T20:43:37.021Z,101415.69
2022-09-23T20:46:05.335Z,101414.94
2022-09-23T20:48:31.992Z,101409.59
2022-09-23T20:51:05.807Z,101411.53
2022-09-23T20:53:32.684Z,101410.94
2022-09-23T20:55:59.564Z,101407.50
2022-09-23T20:58:29.080Z,101410.19
2022-09-23T21:01:04.271Z,101405.28
2022-09-23T21:03:32.048Z,101399.91
2022-09-23T21:06:03.780Z,101403.78
2022-09-23T21:08:30.977Z,101405.72
2022-09-23T21:10:58.447Z,101396.19
2022-09-23T21:13:25.115Z,101401.56
2022-09-23T21:15:51.874Z,101396.34
2022-09-23T21:18:22.347Z,101391.16
2022-09-23T21:20:59.355Z,101392.34
2022-09-23T21:23:32.179Z,101390.56
2022-09-23T21:26:13.710Z,101397.13
2022-09-23T21:28:42.233Z,101391.03
2022-09-23T21:31:11.496Z,101397.25
2022-09-23T21:33:38.034Z,101387.75
2022-09-23T21:36:07.012Z,101387.75
2022-09-23T21:38:37.336Z,101382.09
2022-09-23T21:41:06.783Z,101385.97
2022-09-23T21:43:35.543Z,101381.50
2022-09-23T21:46:04.258Z,101378.53
2022-09-23T21:48:33.171Z,101381.94
2022-09-23T21:51:02.542Z,101381.34
2022-09-23T21:53:30.965Z,101387.13
2022-09-23T21:56:05.204Z,101382.22
2022-09-23T21:58:33.037Z,101382.97
2022-09-23T22:00:59.602Z,101392.19
2022-09-23T22:03:26.190Z,101384.59
2022-09-23T22:06:11.513Z,101383.88
2022-09-23T22:08:42.970Z,101383.88
2022-09-23T22:11:30.569Z,101384.31
2022-09-23T22:13:58.037Z,101385.78
2022-09-23T22:16:25.092Z,101384.75
2022-09-23T22:18:55.173Z,101385.19
2022-09-23T22:21:23.037Z,101380.28
2022-09-23T22:23:54.190Z,101386.53
2022-09-23T22:26:20.740Z,101380.72
2022-09-23T22:29:05.617Z,101379.25
2022-09-23T22:31:50.891Z,101374.38
2022-09-23T22:34:47.527Z,101376.56
2022-09-23T22:37:04.389Z,101376.75
2022-09-23T22:39:30.942Z,101367.97
2022-09-23T22:41:58.739Z,101370.19
2022-09-23T22:44:25.508Z,101368.72
2022-09-23T22:46:52.257Z,101374.81
2022-09-23T22:49:19.671Z,101368.72
2022-09-23T22:51:46.654Z,101372.13
2022-09-23T22:54:13.159Z,101367.97
2022-09-23T22:56:39.556Z,101365.00
2022-09-23T22:59:08.111Z,101366.91
2022-09-23T23:01:35.128Z,101361.72
2022-09-23T23:04:02.090Z,101366.31
2022-09-23T23:06:36.871Z,101367.06
2022-09-23T23:09:08.711Z,101360.53
2022-09-23T23:11:35.117Z,101358.59
2022-09-23T23:14:02.786Z,101362.00
2022-09-23T23:16:35.401Z,101360.22
2022-09-23T23:19:09.466Z,101358.75
2022-09-23T23:21:37.067Z,101352.19
2022-09-23T23:24:04.865Z,101353.41
2022-09-23T23:26:33.822Z,101354.56
2022-09-23T23:29:01.343Z,101351.16
2022-09-23T23:31:29.180Z,101345.06
2022-09-23T23:33:55.679Z,101349.66
2022-09-23T23:36:23.150Z,101342.84
2022-09-23T23:38:51.531Z,101338.22
2022-09-23T23:41:22.414Z,101342.09
2022-09-23T23:44:01.075Z,101344.31
2022-09-23T23:46:30.113Z,101340.47
2022-09-23T23:48:57.469Z,101340.91
2022-09-23T23:51:27.674Z,101341.34
2022-09-23T23:53:56.467Z,101341.34
2022-09-23T23:56:24.856Z,101341.50
2022-09-23T23:58:59.619Z,101341.50
